Time;durP1;ratioP1;P1;durP2;ratioP2;P2;SDS_P1;SDS_P2;PMS_P1;PMS_P2;Temp;Humidity;BMP_temperature;BMP_pressure;BME280_temperature;BME280_humidity;BME280_pressure;Samples;Min_cycle;Max_cycle;Signal;HPM_P1;HPM_P2
2024/01/07 00:00:01;;;;;;;14.40;6.90;;;;;;;9.63;100.00;95884.31;5153172;27;20035;-77
2024/01/07 00:02:27;;;;;;;14.38;7.05;;;;;;;9.66;100.00;95892.06;5135016;27;20027;-76
2024/01/07 00:04:53;;;;;;;21.05;9.43;;;;;;;9.75;100.00;95885.09;5134628;27;20075;-75
2024/01/07 00:07:20;;;;;;;17.77;8.27;;;;;;;9.74;100.00;95891.41;5134378;27;20027;-76
2024/01/07 00:09:46;;;;;;;18.90;8.55;;;;;;;9.81;100.00;95876.56;5153140;27;20402;-76
2024/01/07 00:12:11;;;;;;;14.75;7.32;;;;;;;9.77;100.00;95875.97;5134530;27;20026;-76
2024/01/07 00:14:37;;;;;;;13.07;6.65;;;;;;;9.76;100.00;95887.63;5134423;27;20048;-76
2024/01/07 00:17:03;;;;;;;15.65;6.95;;;;;;;9.87;100.00;95899.22;5134481;27;20061;-77
2024/01/07 00:19:31;;;;;;;14.23;6.90;;;;;;;9.82;100.00;95888.91;5134797;27;20022;-76
2024/01/07 00:21:56;;;;;;;11.43;5.82;;;;;;;9.75;100.00;95871.75;5133418;27;20046;-77
2024/01/07 00:24:22;;;;;;;13.68;6.45;;;;;;;9.77;100.00;95872.47;5134268;27;20065;-76
2024/01/07 00:26:47;;;;;;;12.57;5.40;;;;;;;9.73;100.00;95876.38;5133989;27;20029;-76
2024/01/07 00:29:13;;;;;;;13.13;6.70;;;;;;;9.68;100.00;95859.91;5134402;27;20113;-77
2024/01/07 00:31:38;;;;;;;13.38;5.00;;;;;;;9.65;100.00;95854.81;5152287;27;20042;-76
2024/01/07 00:34:04;;;;;;;12.95;5.72;;;;;;;9.71;100.00;95848.97;5152591;27;20022;-76
2024/01/07 00:36:30;;;;;;;14.25;5.43;;;;;;;9.70;100.00;95863.28;5152565;27;20504;-76
2024/01/07 00:38:55;;;;;;;11.40;4.43;;;;;;;9.68;100.00;95860.75;5133898;27;20022;-77
2024/01/07 00:41:21;;;;;;;10.50;4.95;;;;;;;9.67;100.00;95864.38;5152523;27;20035;-76
2024/01/07 00:43:46;;;;;;;15.32;5.65;;;;;;;9.64;100.00;95863.81;5133824;27;20018;-76
2024/01/07 00:46:12;;;;;;;10.27;5.53;;;;;;;9.57;100.00;95847.47;5152446;27;20031;-76
2024/01/07 00:48:37;;;;;;;14.25;5.50;;;;;;;9.51;100.00;95842.66;5133885;27;20372;-76
2024/01/07 00:51:04;;;;;;;10.18;5.35;;;;;;;9.44;100.00;95835.31;5134259;27;20079;-78
2024/01/07 00:53:29;;;;;;;12.75;6.38;;;;;;;9.39;100.00;95837.50;5133729;27;20034;-77
2024/01/07 00:55:55;;;;;;;15.27;6.90;;;;;;;9.32;100.00;95837.16;5133607;27;20449;-76
2024/01/07 00:58:20;;;;;;;17.83;8.98;;;;;;;9.36;100.00;95832.44;5151991;27;20102;-76
2024/01/07 01:00:46;;;;;;;12.82;6.32;;;;;;;9.50;100.00;95835.63;5151886;27;20149;-78
2024/01/07 01:03:12;;;;;;;22.25;7.47;;;;;;;9.40;100.00;95833.88;5133880;27;20436;-76
2024/01/07 01:05:37;;;;;;;20.33;8.00;;;;;;;9.38;100.00;95814.47;5152366;27;20022;-76
2024/01/07 01:08:03;;;;;;;18.85;8.60;;;;;;;9.36;100.00;95808.41;5152114;27;20014;-76
2024/01/07 01:10:29;;;;;;;15.05;7.68;;;;;;;9.32;100.00;95796.34;5152346;27;20046;-76
2024/01/07 01:12:54;;;;;;;18.38;7.80;;;;;;;9.21;100.00;95794.56;5116299;27;20011;-76
2024/01/07 01:15:20;;;;;;;17.40;7.38;;;;;;;9.16;100.00;95799.44;5133328;27;20505;-76
2024/01/07 01:17:46;;;;;;;20.70;8.82;;;;;;;9.15;100.00;95800.41;5151987;27;20082;-76
2024/01/07 01:20:12;;;;;;;14.82;5.00;;;;;;;9.29;100.00;95789.41;5132475;27;20042;-75
2024/01/07 01:22:37;;;;;;;13.40;5.85;;;;;;;9.40;100.00;95777.84;5133410;27;20050;-76
2024/01/07 01:25:04;;;;;;;8.77;5.45;;;;;;;9.39;100.00;95773.47;5133418;27;20030;-77
2024/01/07 01:27:29;;;;;;;18.52;8.68;;;;;;;9.35;100.00;95770.22;5116303;27;20064;-76
2024/01/07 01:29:55;;;;;;;21.40;8.60;;;;;;;9.29;100.00;95773.41;5133055;27;20422;-75
2024/01/07 01:32:20;;;;;;;16.40;7.25;;;;;;;9.25;100.00;95766.66;5117036;27;20019;-76
2024/01/07 01:34:46;;;;;;;15.18;7.07;;;;;;;9.21;100.00;95749.22;5156267;27;20069;-76
2024/01/07 01:37:11;;;;;;;15.38;8.13;;;;;;;9.14;100.00;95764.88;5155781;27;20027;-76
2024/01/07 01:39:43;;;;;;;17.83;8.20;;;;;;;9.03;100.00;95758.78;5156188;27;20026;-76
2024/01/07 01:42:09;;;;;;;14.80;7.88;;;;;;;9.04;100.00;95758.66;5137078;27;20035;-76
2024/01/07 01:44:34;;;;;;;15.32;6.78;;;;;;;9.00;100.00;95749.22;5120142;27;20115;-76
2024/01/07 01:47:00;;;;;;;13.55;5.10;;;;;;;8.98;100.00;95729.00;5155652;27;20027;-76
2024/01/07 01:49:29;;;;;;;17.05;6.88;;;;;;;8.96;100.00;95723.78;5137303;27;20023;-76
2024/01/07 01:51:55;;;;;;;16.67;6.80;;;;;;;8.94;100.00;95725.75;5119934;27;20031;-75
2024/01/07 01:54:21;;;;;;;16.05;6.68;;;;;;;8.91;100.00;95722.50;5137143;27;20023;-77
2024/01/07 01:56:48;;;;;;;15.32;6.85;;;;;;;8.89;100.00;95732.44;5119927;27;20164;-76
2024/01/07 01:59:16;;;;;;;20.83;9.18;;;;;;;8.82;100.00;95721.47;5136568;27;20046;-76
2024/01/07 02:01:42;;;;;;;17.08;8.20;;;;;;;8.89;100.00;95716.47;5137378;27;20058;-76
2024/01/07 02:04:10;;;;;;;19.60;8.15;;;;;;;8.90;100.00;95713.66;5119723;27;20054;-76
2024/01/07 02:06:36;;;;;;;19.80;9.40;;;;;;;8.83;100.00;95711.66;5136929;27;20038;-76
2024/01/07 02:09:02;;;;;;;22.98;10.40;;;;;;;8.73;100.00;95703.56;5136738;27;20026;-76
2024/01/07 02:11:28;;;;;;;17.80;8.40;;;;;;;8.80;100.00;95707.38;5155430;27;20023;-77
2024/01/07 02:13:53;;;;;;;19.70;10.13;;;;;;;8.70;100.00;95694.00;5155358;27;20023;-76
2024/01/07 02:16:24;;;;;;;29.70;10.88;;;;;;;8.69;100.00;95689.66;5136744;27;20063;-74
2024/01/07 02:18:50;;;;;;;24.92;11.10;;;;;;;8.75;100.00;95676.78;5137002;27;20033;-75
2024/01/07 02:21:16;;;;;;;16.65;7.25;;;;;;;8.80;100.00;95670.06;5155146;27;20027;-76
2024/01/07 02:23:41;;;;;;;19.98;8.48;;;;;;;8.77;100.00;95667.66;5119573;27;20035;-75
2024/01/07 02:26:07;;;;;;;20.02;7.82;;;;;;;8.73;100.00;95654.75;5119315;27;20075;-76
2024/01/07 02:28:33;;;;;;;19.60;7.85;;;;;;;8.73;100.00;95660.09;5155182;27;20489;-77
2024/01/07 02:31:02;;;;;;;16.10;6.82;;;;;;;8.65;100.00;95656.25;5155215;27;20026;-76
2024/01/07 02:33:28;;;;;;;12.00;5.80;;;;;;;8.55;100.00;95654.50;5136658;27;20370;-76
2024/01/07 02:35:53;;;;;;;14.07;5.72;;;;;;;8.54;100.00;95647.47;5136649;27;20346;-77
2024/01/07 02:38:19;;;;;;;11.30;5.93;;;;;;;8.51;100.00;95631.75;5154820;27;20031;-77
2024/01/07 02:40:44;;;;;;;12.10;5.85;;;;;;;8.37;100.00;95640.03;5136199;27;20026;-77
2024/01/07 02:43:10;;;;;;;11.27;5.03;;;;;;;8.30;100.00;95644.19;5136253;27;20082;-76
2024/01/07 02:45:36;;;;;;;12.07;5.68;;;;;;;8.25;100.00;95631.22;5153896;27;20026;-76
2024/01/07 02:48:01;;;;;;;14.82;5.50;;;;;;;8.24;100.00;95634.03;5136078;27;20030;-76
2024/01/07 02:50:27;;;;;;;9.10;5.47;;;;;;;8.25;100.00;95628.56;5154478;27;20033;-76
2024/01/07 02:52:52;;;;;;;13.00;6.15;;;;;;;8.22;100.00;95630.63;5154565;27;20409;-77
2024/01/07 02:55:18;;;;;;;16.60;8.30;;;;;;;8.15;100.00;95631.13;5154116;27;20070;-75
2024/01/07 02:57:44;;;;;;;17.80;7.78;;;;;;;8.16;100.00;95632.84;5154585;27;20029;-76
2024/01/07 03:00:10;;;;;;;23.10;8.65;;;;;;;8.17;100.00;95634.53;5154493;27;20481;-75
2024/01/07 03:02:36;;;;;;;18.73;8.63;;;;;;;8.13;100.00;95654.41;5136227;27;20054;-76
2024/01/07 03:05:02;;;;;;;20.15;9.48;;;;;;;8.17;100.00;95650.53;5119026;27;20046;-76
2024/01/07 03:07:27;;;;;;;20.92;9.50;;;;;;;8.22;100.00;95662.59;5135784;27;20041;-76
2024/01/07 03:09:53;;;;;;;21.35;8.80;;;;;;;8.36;100.00;95654.34;5135840;27;20014;-77
2024/01/07 03:12:19;;;;;;;21.20;9.07;;;;;;;8.47;100.00;95640.97;5154108;27;20030;-76
2024/01/07 03:14:47;;;;;;;25.52;10.18;;;;;;;8.55;100.00;95627.84;5135904;27;20054;-76
2024/01/07 03:17:28;;;;;;;27.60;11.02;;;;;;;8.63;100.00;95636.03;5132822;27;20030;-76
2024/01/07 03:19:57;;;;;;;21.33;10.43;;;;;;;8.73;100.00;95652.09;5118384;27;20050;-76
2024/01/07 03:22:23;;;;;;;17.30;8.80;;;;;;;8.74;100.00;95617.28;5154253;27;20397;-77
2024/01/07 03:24:48;;;;;;;21.08;9.10;;;;;;;8.70;100.00;95597.22;5134936;27;20390;-77
2024/01/07 03:27:14;;;;;;;21.77;9.38;;;;;;;8.72;100.00;95603.25;5118526;27;20030;-77
2024/01/07 03:29:40;;;;;;;15.98;8.23;;;;;;;8.77;100.00;95613.53;5134951;27;20050;-76
2024/01/07 03:32:06;;;;;;;15.20;6.70;;;;;;;8.74;100.00;95603.97;5135481;27;20129;-77
2024/01/07 03:34:31;;;;;;;15.18;6.97;;;;;;;8.65;100.00;95597.63;5135360;27;20030;-76
2024/01/07 03:36:57;;;;;;;13.43;6.38;;;;;;;8.60;100.00;95605.16;5153561;27;20030;-76
2024/01/07 03:39:22;;;;;;;10.85;5.88;;;;;;;8.54;100.00;95602.19;5135015;27;20032;-75
2024/01/07 03:41:48;;;;;;;14.90;5.82;;;;;;;8.35;100.00;95612.69;5117586;27;20109;-76
2024/01/07 03:44:14;;;;;;;10.32;5.93;;;;;;;8.33;100.00;95619.97;5135225;27;20516;-76
2024/01/07 03:46:40;;;;;;;13.82;7.38;;;;;;;8.40;100.00;95614.00;5134595;27;20026;-75
2024/01/07 03:49:05;;;;;;;16.33;7.75;;;;;;;8.48;100.00;95597.38;5153368;27;20465;-77
2024/01/07 03:51:31;;;;;;;14.32;6.13;;;;;;;8.50;100.00;95595.41;5153318;27;20044;-76
2024/01/07 03:53:56;;;;;;;13.10;7.05;;;;;;;8.50;100.00;95601.59;5134727;27;20026;-77
2024/01/07 03:56:22;;;;;;;13.43;6.80;;;;;;;8.60;100.00;95599.00;5153255;27;20068;-76
2024/01/07 03:58:47;;;;;;;11.00;6.30;;;;;;;8.67;100.00;95597.50;5134631;27;20059;-75
2024/01/07 04:01:17;;;;;;;21.27;7.65;;;;;;;8.65;100.00;95586.97;5153257;27;20026;-75
2024/01/07 04:03:42;;;;;;;15.93;7.65;;;;;;;8.69;100.00;95590.19;5134517;27;20026;-75
2024/01/07 04:06:08;;;;;;;14.93;7.38;;;;;;;8.75;100.00;95592.34;5134416;27;20107;-74
2024/01/07 04:08:35;;;;;;;15.00;7.22;;;;;;;8.74;100.00;95595.16;5152860;27;20109;-74
2024/01/07 04:11:02;;;;;;;13.55;6.88;;;;;;;8.71;100.00;95597.09;5134613;27;20105;-76
2024/01/07 04:13:27;;;;;;;13.75;6.63;;;;;;;8.79;100.00;95593.78;5134623;27;20023;-76
2024/01/07 04:15:53;;;;;;;13.82;7.35;;;;;;;8.80;100.00;95581.31;5116958;27;20026;-75
2024/01/07 04:18:19;;;;;;;16.17;7.60;;;;;;;8.76;100.00;95578.06;5134713;27;20409;-76
2024/01/07 04:20:44;;;;;;;18.10;9.43;;;;;;;8.76;100.00;95579.88;5134000;27;20027;-75
2024/01/07 04:23:10;;;;;;;16.63;8.80;;;;;;;8.77;100.00;95578.91;5152959;27;20481;-75
2024/01/07 04:25:35;;;;;;;14.50;8.13;;;;;;;8.71;100.00;95578.44;5117146;27;20025;-76
2024/01/07 04:28:01;;;;;;;11.98;6.63;;;;;;;8.60;100.00;95583.84;5152788;27;20094;-77
2024/01/07 04:30:27;;;;;;;14.20;6.30;;;;;;;8.57;100.00;95577.94;5152969;27;20034;-76
2024/01/07 04:32:52;;;;;;;14.65;6.60;;;;;;;8.55;100.00;95579.91;5153099;27;20099;-76
2024/01/07 04:35:18;;;;;;;13.80;6.15;;;;;;;8.45;100.00;95577.16;5134126;27;20026;-76
2024/01/07 04:37:43;;;;;;;11.82;6.13;;;;;;;8.46;100.00;95575.34;5153149;27;20022;-75
2024/01/07 04:40:10;;;;;;;13.23;6.20;;;;;;;8.51;100.00;95578.47;5133789;27;20032;-76
2024/01/07 04:42:35;;;;;;;10.77;5.95;;;;;;;8.56;100.00;95560.25;5152650;27;20023;-77
2024/01/07 04:45:01;;;;;;;13.40;6.13;;;;;;;8.49;100.00;95551.94;5134033;27;20412;-76
2024/01/07 04:47:31;;;;;;;13.82;6.10;;;;;;;8.48;100.00;95558.25;5133783;27;20474;-75
2024/01/07 04:49:57;;;;;;;14.65;6.63;;;;;;;8.53;100.00;95569.34;5134173;27;20110;-76
2024/01/07 04:52:24;;;;;;;14.50;6.47;;;;;;;8.48;100.00;95568.06;5133514;27;20133;-77
2024/01/07 04:54:58;;;;;;;12.25;6.72;;;;;;;8.46;100.00;95560.19;5134266;27;20025;-76
2024/01/07 04:57:24;;;;;;;16.40;7.53;;;;;;;8.50;100.00;95550.13;5133691;27;20030;-75
2024/01/07 04:59:50;;;;;;;11.30;6.60;;;;;;;8.47;100.00;95540.56;5152196;27;20406;-77
2024/01/07 05:02:16;;;;;;;22.80;12.25;;;;;;;8.54;100.00;95557.72;5151795;27;20486;-76
2024/01/07 05:04:42;;;;;;;28.08;13.50;;;;;;;8.56;100.00;95545.13;5116371;27;20478;-77
2024/01/07 05:07:08;;;;;;;28.95;14.70;;;;;;;8.57;100.00;95541.47;5151554;27;20026;-75
2024/01/07 05:09:33;;;;;;;32.70;15.85;;;;;;;8.57;100.00;95535.31;5133584;27;20091;-77
2024/01/07 05:11:59;;;;;;;24.98;11.73;;;;;;;8.59;100.00;95534.19;5116352;27;20404;-76
2024/01/07 05:14:25;;;;;;;30.98;11.68;;;;;;;8.60;100.00;95535.03;5133509;27;20038;-76
2024/01/07 05:16:51;;;;;;;17.52;8.90;;;;;;;8.60;100.00;95529.72;5133648;27;20031;-76
2024/01/07 05:19:16;;;;;;;13.80;6.82;;;;;;;8.60;100.00;95529.72;5132967;27;20046;-76
2024/01/07 05:21:42;;;;;;;12.05;6.53;;;;;;;8.64;100.00;95537.28;5133391;27;20019;-76
2024/01/07 05:24:07;;;;;;;11.48;6.45;;;;;;;8.64;100.00;95557.78;5133528;27;20026;-76
2024/01/07 05:26:40;;;;;;;14.73;7.03;;;;;;;8.71;100.00;95553.59;5152090;27;20440;-75
2024/01/07 05:29:06;;;;;;;9.43;4.80;;;;;;;8.58;100.00;95551.13;5133679;27;20026;-76
2024/01/07 05:31:32;;;;;;;13.63;5.55;;;;;;;8.62;100.00;95559.72;5133381;27;20025;-75
2024/01/07 05:33:57;;;;;;;15.38;7.60;;;;;;;8.63;100.00;95561.41;5133541;27;20027;-76
2024/01/07 05:36:23;;;;;;;13.82;7.57;;;;;;;8.67;100.00;95545.03;5133353;27;20037;-76
2024/01/07 05:38:48;;;;;;;15.05;7.25;;;;;;;8.67;100.00;95550.34;5133327;27;20036;-76
2024/01/07 05:41:14;;;;;;;11.48;6.70;;;;;;;8.61;100.00;95547.41;5151806;27;20062;-75
2024/01/07 05:43:40;;;;;;;12.68;6.82;;;;;;;8.52;100.00;95545.53;5151740;27;20061;-76
2024/01/07 05:46:05;;;;;;;16.08;8.88;;;;;;;8.64;100.00;95552.47;5133250;27;20481;-77
2024/01/07 05:48:42;;;;;;;18.08;7.93;;;;;;;8.65;100.00;95564.78;5151331;27;20037;-76
2024/01/07 05:51:08;;;;;;;11.18;6.80;;;;;;;8.59;100.00;95573.31;5116159;27;20021;-76
2024/01/07 05:53:34;;;;;;;11.80;5.82;;;;;;;8.52;100.00;95572.97;5133148;27;20034;-75
2024/01/07 05:56:00;;;;;;;11.95;6.28;;;;;;;8.51;100.00;95589.13;5133317;27;20031;-75
2024/01/07 05:58:26;;;;;;;2.75;1.05;;;;;;;8.42;100.00;95592.56;5132912;27;20070;-77
2024/01/07 06:00:51;;;;;;;3.67;1.98;;;;;;;8.33;100.00;95588.00;5132816;27;20085;-76
2024/01/07 06:03:17;;;;;;;0.95;0.90;;;;;;;8.33;100.00;95590.69;5151364;27;20034;-74
2024/01/07 06:05:42;;;;;;;1.38;1.15;;;;;;;8.33;100.00;95604.00;5133037;27;20489;-75
2024/01/07 06:08:09;;;;;;;0.93;0.65;;;;;;;8.45;100.00;95594.97;5151484;27;20446;-76
2024/01/07 06:10:35;;;;;;;0.63;0.30;;;;;;;8.55;100.00;95618.00;5151388;27;20439;-75
2024/01/07 06:13:02;;;;;;;1.70;1.30;;;;;;;8.60;100.00;95630.97;5132945;27;20254;-75
2024/01/07 06:15:28;;;;;;;0.70;0.50;;;;;;;8.56;100.00;95640.19;5133738;27;20022;-75
2024/01/07 06:17:54;;;;;;;2.92;1.65;;;;;;;8.67;100.00;95645.47;5114434;27;20462;-75
2024/01/07 06:20:19;;;;;;;3.00;2.47;;;;;;;8.55;100.00;95665.16;5135663;27;20031;-76
2024/01/07 06:22:45;;;;;;;1.92;1.38;;;;;;;8.28;100.00;95662.97;5155031;27;20030;-76
2024/01/07 06:25:11;;;;;;;1.10;1.02;;;;;;;8.22;100.00;95676.75;5136445;27;20023;-75
2024/01/07 06:27:38;;;;;;;3.63;1.52;;;;;;;8.30;100.00;95671.69;5136274;27;20025;-75
2024/01/07 06:30:05;;;;;;;5.28;1.20;;;;;;;8.34;100.00;95656.25;5136206;27;20101;-75
2024/01/07 06:32:32;;;;;;;1.52;1.35;;;;;;;8.34;100.00;95645.63;5155331;27;20485;-75
2024/01/07 06:34:58;;;;;;;0.80;0.80;;;;;;;8.34;100.00;95642.94;5136686;27;21383;-75
2024/01/07 06:37:24;;;;;;;1.40;1.20;;;;;;;8.16;100.00;95651.47;5136543;27;20023;-75
2024/01/07 06:39:49;;;;;;;2.95;1.27;;;;;;;7.96;100.00;95646.97;5154563;27;20023;-75
2024/01/07 06:42:15;;;;;;;0.80;0.68;;;;;;;7.81;100.00;95637.59;5136276;27;20033;-76
2024/01/07 06:44:40;;;;;;;4.13;1.33;;;;;;;7.63;100.00;95607.13;5118671;27;20473;-75
2024/01/07 06:47:06;;;;;;;0.95;0.85;;;;;;;7.59;100.00;95603.03;5135843;27;20022;-75
2024/01/07 06:49:32;;;;;;;5.20;1.25;;;;;;;7.60;100.00;95607.38;5136120;27;20113;-76
2024/01/07 06:51:57;;;;;;;7.10;2.95;;;;;;;7.52;100.00;95609.81;5118610;27;20470;-76
2024/01/07 06:54:23;;;;;;;0.70;0.70;;;;;;;7.43;100.00;95599.94;5154500;27;20022;-74
2024/01/07 06:56:48;;;;;;;14.15;2.65;;;;;;;7.39;100.00;95603.78;5154083;27;20059;-74
2024/01/07 06:59:14;;;;;;;2.78;1.30;;;;;;;7.45;100.00;95609.47;5135673;27;20114;-75
2024/01/07 07:01:40;;;;;;;3.35;1.83;;;;;;;7.49;100.00;95615.38;5135680;27;20042;-74
2024/01/07 07:04:05;;;;;;;1.83;1.20;;;;;;;7.59;100.00;95616.34;5135675;27;20478;-75
2024/01/07 07:06:31;;;;;;;0.88;0.88;;;;;;;7.68;100.00;95612.09;5118359;27;20038;-75
2024/01/07 07:08:57;;;;;;;2.40;2.00;;;;;;;7.73;100.00;95613.38;5135575;27;20087;-75
2024/01/07 07:11:22;;;;;;;4.28;1.75;;;;;;;7.79;100.00;95615.56;5135494;27;20015;-74
2024/01/07 07:13:48;;;;;;;2.75;1.90;;;;;;;7.93;100.00;95614.44;5135359;27;20030;-74
2024/01/07 07:16:14;;;;;;;2.05;1.95;;;;;;;7.92;100.00;95602.94;5153982;27;20024;-75
2024/01/07 07:18:39;;;;;;;3.53;1.75;;;;;;;7.99;100.00;95609.44;5135672;27;20171;-75
2024/01/07 07:21:05;;;;;;;29.15;2.15;;;;;;;8.06;100.00;95610.59;5153491;27;20015;-75
2024/01/07 07:23:31;;;;;;;3.20;1.77;;;;;;;8.14;100.00;95602.84;5135765;27;20045;-75
2024/01/07 07:25:57;;;;;;;1.15;1.15;;;;;;;8.25;100.00;95609.06;5153703;27;20052;-76
2024/01/07 07:28:22;;;;;;;20.30;2.47;;;;;;;8.29;100.00;95621.19;5153669;27;20105;-76
2024/01/07 07:30:48;;;;;;;3.50;1.85;;;;;;;8.31;100.00;95624.56;5134735;27;20022;-76
2024/01/07 07:33:13;;;;;;;8.23;2.60;;;;;;;8.40;100.00;95627.31;5135100;27;20060;-76
2024/01/07 07:35:41;;;;;;;2.30;1.55;;;;;;;8.44;100.00;95633.22;5135383;27;20019;-76
2024/01/07 07:38:07;;;;;;;6.72;3.28;;;;;;;8.44;100.00;95630.56;5153520;27;20034;-76
2024/01/07 07:40:33;;;;;;;4.60;3.78;;;;;;;8.52;100.00;95628.94;5135024;27;20542;-76
2024/01/07 07:42:58;;;;;;;8.35;3.40;;;;;;;8.58;100.00;95638.25;5134619;27;20033;-75
2024/01/07 07:45:24;;;;;;;6.18;3.15;;;;;;;8.61;100.00;95633.47;5153520;27;20019;-75
2024/01/07 07:47:49;;;;;;;2.70;1.70;;;;;;;8.66;100.00;95649.09;5153333;27;20023;-74
2024/01/07 07:50:15;;;;;;;4.88;3.40;;;;;;;8.72;100.00;95640.56;5153233;27;20014;-75
2024/01/07 07:52:44;;;;;;;4.40;2.10;;;;;;;8.71;100.00;95642.38;5135111;27;20018;-76
2024/01/07 07:55:10;;;;;;;2.83;1.80;;;;;;;8.84;100.00;95634.19;5153087;27;20034;-76
2024/01/07 07:57:37;;;;;;;3.30;2.50;;;;;;;8.82;100.00;95638.81;5134924;27;20027;-76
2024/01/07 08:00:07;;;;;;;4.88;2.08;;;;;;;8.81;100.00;95633.59;5134659;27;20129;-75
2024/01/07 08:02:32;;;;;;;2.15;1.90;;;;;;;8.78;100.00;95625.88;5135175;27;20027;-75
2024/01/07 08:04:58;;;;;;;2.22;1.50;;;;;;;8.85;100.00;95635.91;5134562;27;20098;-76
2024/01/07 08:07:24;;;;;;;1.92;1.67;;;;;;;8.97;100.00;95629.50;5134531;27;20096;-76
2024/01/07 08:09:51;;;;;;;1.85;1.70;;;;;;;9.00;100.00;95623.91;5153080;27;20105;-77
2024/01/07 08:12:16;;;;;;;8.77;4.35;;;;;;;9.06;100.00;95638.53;5134421;27;20023;-79
2024/01/07 08:14:42;;;;;;;2.88;1.45;;;;;;;9.07;100.00;95641.06;5134795;27;20470;-76
2024/01/07 08:17:08;;;;;;;5.78;2.95;;;;;;;8.99;100.00;95640.88;5152948;27;20022;-76
2024/01/07 08:19:34;;;;;;;3.83;2.70;;;;;;;8.95;100.00;95630.63;5134764;27;20030;-76
2024/01/07 08:21:59;;;;;;;5.50;2.65;;;;;;;8.99;100.00;95634.69;5134147;27;20031;-75
2024/01/07 08:24:25;;;;;;;5.82;2.28;;;;;;;9.13;100.00;95637.03;5134206;27;20034;-76
2024/01/07 08:26:51;;;;;;;5.18;1.85;;;;;;;9.27;100.00;95632.16;5152675;27;20022;-75
2024/01/07 08:29:17;;;;;;;4.57;3.08;;;;;;;9.18;100.00;95626.78;5152452;27;20025;-76
2024/01/07 08:31:43;;;;;;;5.70;3.25;;;;;;;9.25;100.00;95627.94;5152931;27;20404;-76
2024/01/07 08:34:09;;;;;;;4.03;2.83;;;;;;;9.34;100.00;95631.63;5133946;27;20027;-75
2024/01/07 08:36:34;;;;;;;3.78;3.05;;;;;;;9.42;100.00;95618.44;5145738;27;20022;-76
2024/01/07 08:39:00;;;;;;;4.28;2.28;;;;;;;9.47;100.00;95611.75;5133786;27;20107;-74
2024/01/07 08:41:26;;;;;;;3.20;2.25;;;;;;;9.52;100.00;95611.34;5133398;27;20101;-77
2024/01/07 08:43:52;;;;;;;5.70;3.75;;;;;;;9.63;100.00;95592.53;5116437;27;20026;-76
2024/01/07 08:46:20;;;;;;;6.45;3.75;;;;;;;9.59;100.00;95599.13;5133555;27;20075;-77
2024/01/07 08:48:47;;;;;;;3.67;2.92;;;;;;;9.70;100.00;95593.66;5133782;27;20019;-76
2024/01/07 08:51:13;;;;;;;6.75;3.40;;;;;;;9.82;100.00;95601.41;5152242;27;20023;-75
2024/01/07 08:53:39;;;;;;;4.03;2.90;;;;;;;9.90;100.00;95592.75;5134067;27;20461;-76
2024/01/07 08:56:06;;;;;;;13.57;4.95;;;;;;;10.01;100.00;95595.25;5133667;27;20128;-75
2024/01/07 08:58:32;;;;;;;5.50;3.85;;;;;;;10.06;100.00;95592.19;5133804;27;20041;-77
2024/01/07 09:00:58;;;;;;;12.18;3.95;;;;;;;10.22;100.00;95592.47;5152070;27;20034;-76
2024/01/07 09:03:25;;;;;;;6.85;3.95;;;;;;;10.41;100.00;95591.63;5116557;27;20046;-76
2024/01/07 09:05:50;;;;;;;4.65;2.78;;;;;;;10.48;100.00;95588.25;5133680;27;20406;-76
2024/01/07 09:08:16;;;;;;;4.45;3.70;;;;;;;10.65;100.00;95600.03;5152363;27;20105;-76
2024/01/07 09:10:42;;;;;;;3.75;3.22;;;;;;;10.72;100.00;95591.31;5133344;27;20105;-77
2024/01/07 09:13:07;;;;;;;5.20;3.78;;;;;;;10.71;100.00;95594.13;5133825;27;20049;-77
2024/01/07 09:15:33;;;;;;;7.15;3.33;;;;;;;10.73;100.00;95589.50;5151730;27;20022;-76
2024/01/07 09:17:58;;;;;;;4.68;4.10;;;;;;;10.65;100.00;95582.16;5152277;27;20034;-77
2024/01/07 09:20:24;;;;;;;8.27;4.97;;;;;;;10.70;100.00;95576.41;5133436;27;20031;-77
2024/01/07 09:22:50;;;;;;;9.63;5.28;;;;;;;10.74;100.00;95583.13;5133176;27;20033;-75
2024/01/07 09:25:16;;;;;;;9.65;4.60;;;;;;;10.83;100.00;95582.25;5133421;27;20466;-77
2024/01/07 09:27:42;;;;;;;8.73;5.13;;;;;;;10.95;100.00;95581.09;5116236;27;20019;-76
2024/01/07 09:30:10;;;;;;;9.00;4.47;;;;;;;10.92;100.00;95588.59;5134210;27;20014;-76
2024/01/07 09:32:36;;;;;;;7.78;4.03;;;;;;;11.15;100.00;95576.53;5133535;27;20031;-76
2024/01/07 09:35:02;;;;;;;7.97;4.53;;;;;;;11.08;100.00;95560.22;5116433;27;20015;-75
2024/01/07 09:37:28;;;;;;;4.40;3.08;;;;;;;11.16;100.00;95563.03;5151963;27;20482;-77
2024/01/07 09:39:53;;;;;;;7.10;2.97;;;;;;;11.25;100.00;95556.78;5133244;27;20022;-76
2024/01/07 09:42:19;;;;;;;11.50;4.38;;;;;;;11.35;100.00;95562.09;5151798;27;20031;-76
2024/01/07 09:44:46;;;;;;;5.22;3.17;;;;;;;11.50;100.00;95554.41;5133047;27;20046;-74
2024/01/07 09:47:14;;;;;;;16.33;5.75;;;;;;;11.71;100.00;95560.38;5115415;27;20023;-75
2024/01/07 09:49:40;;;;;;;2.67;2.05;;;;;;;11.96;100.00;95562.31;5115937;27;20023;-76
2024/01/07 09:52:08;;;;;;;7.53;3.60;;;;;;;12.10;100.00;95556.41;5133277;27;20019;-76
2024/01/07 09:54:33;;;;;;;4.40;3.40;;;;;;;11.89;100.00;95551.34;5136012;27;20103;-76
2024/01/07 09:57:03;;;;;;;4.47;3.80;;;;;;;11.56;100.00;95549.31;5119813;27;20038;-75
2024/01/07 09:59:29;;;;;;;5.28;4.03;;;;;;;11.68;100.00;95552.59;5137126;27;20130;-76
2024/01/07 10:01:55;;;;;;;4.78;4.05;;;;;;;11.81;100.00;95548.56;5119662;27;20031;-77
2024/01/07 10:04:21;;;;;;;7.10;4.78;;;;;;;11.81;100.00;95553.94;5137291;27;20535;-77
2024/01/07 10:06:48;;;;;;;9.80;5.00;;;;;;;11.79;100.00;95552.41;5136876;27;20030;-75
2024/01/07 10:09:17;;;;;;;5.18;3.78;;;;;;;12.02;100.00;95558.19;5120000;27;20029;-76
2024/01/07 10:11:43;;;;;;;7.25;3.30;;;;;;;12.19;100.00;95555.50;5137028;27;20026;-76
2024/01/07 10:14:10;;;;;;;6.25;3.97;;;;;;;12.42;100.00;95554.03;5119669;27;20029;-75
2024/01/07 10:16:35;;;;;;;7.20;3.90;;;;;;;12.72;100.00;95550.06;5136894;27;20087;-76
2024/01/07 10:19:01;;;;;;;3.17;2.35;;;;;;;12.98;100.00;95542.84;5136897;27;20038;-77
2024/01/07 10:21:27;;;;;;;6.28;2.15;;;;;;;13.27;100.00;95539.00;5119522;27;20018;-77
2024/01/07 10:24:12;;;;;;;4.85;2.80;;;;;;;13.52;100.00;95528.22;5154911;27;20038;-76
2024/01/07 10:26:38;;;;;;;5.40;2.33;;;;;;;13.89;100.00;95525.13;5136613;27;20460;-77
2024/01/07 10:29:04;;;;;;;3.28;1.40;;;;;;;14.16;100.00;95510.53;5136574;27;20031;-77
2024/01/07 10:31:31;;;;;;;2.70;1.00;;;;;;;14.36;100.00;95511.94;5155189;27;20026;-77
2024/01/07 10:33:57;;;;;;;;;;;;;;;14.58;100.00;95511.22;5136710;27;20026;-77
2024/01/07 10:36:24;;;;;;;1.75;1.63;;;;;;;15.40;100.00;95499.25;5136443;27;20297;-77
2024/01/07 10:38:50;;;;;;;1.52;0.85;;;;;;;15.67;100.00;95497.97;5136360;27;20029;-77
2024/01/07 10:41:19;;;;;;;1.33;0.82;;;;;;;15.68;100.00;95492.44;5136393;27;20022;-76
2024/01/07 10:43:48;;;;;;;0.93;0.82;;;;;;;15.88;100.00;95508.13;5154909;27;20110;-78
2024/01/07 10:46:14;;;;;;;0.47;0.47;;;;;;;16.03;100.00;95499.09;5136393;27;20105;-77
2024/01/07 10:48:54;;;;;;;1.20;1.10;;;;;;;16.05;100.00;95501.63;5136168;27;20054;-77
2024/01/07 10:51:20;;;;;;;2.25;1.45;;;;;;;15.91;100.00;95487.06;5119000;27;20014;-76
2024/01/07 10:53:53;;;;;;;2.17;1.38;;;;;;;15.68;100.00;95487.03;5136180;27;20160;-76
2024/01/07 10:56:23;;;;;;;2.13;1.27;;;;;;;15.59;100.00;95485.41;5154955;27;20158;-77
2024/01/07 10:58:54;;;;;;;0.88;0.88;;;;;;;15.63;100.00;95486.72;5154499;27;20046;-76
2024/01/07 11:01:21;;;;;;;1.70;1.23;;;;;;;15.84;100.00;95498.75;5136007;27;20023;-77
2024/01/07 11:04:08;;;;;;;6.43;2.42;;;;;;;15.84;100.00;95493.34;5119035;27;20027;-77
2024/01/07 11:06:51;;;;;;;0.77;0.70;;;;;;;15.56;100.00;95488.44;5118258;27;20089;-77
2024/01/07 11:09:33;;;;;;;;;;;;;;;15.21;100.00;95496.97;5136347;27;20029;-76
2024/01/07 11:11:59;;;;;;;1.45;0.55;;;;;;;15.38;100.00;95477.03;5135595;27;20389;-77
2024/01/07 11:14:53;;;;;;;2.03;1.38;;;;;;;15.43;100.00;95480.06;5154556;27;20035;-76
2024/01/07 11:17:37;;;;;;;1.58;1.30;;;;;;;15.30;100.00;95477.06;5130143;27;20398;-76
2024/01/07 11:20:05;;;;;;;2.40;1.38;;;;;;;15.08;100.00;95477.81;5153802;27;20022;-75
2024/01/07 11:22:30;;;;;;;1.40;1.08;;;;;;;14.95;100.00;95496.41;5135512;27;20022;-76